Time;durP1;ratioP1;P1;durP2;ratioP2;P2;SDS_P1;SDS_P2;PMS_P1;PMS_P2;Temp;Humidity;BMP_temperature;BMP_pressure;BME280_temperature;BME280_humidity;BME280_pressure;Samples;Min_cycle;Max_cycle;Signal;HPM_P1;HPM_P2
2023/08/17 00:02:07;;;;;;;12.40;3.83;;;;;;;;;;5075378;28;20045;-68
2023/08/17 00:04:34;;;;;;;8.38;3.80;;;;;;;;;;5075585;28;20041;-68
2023/08/17 00:07:02;;;;;;;6.60;3.60;;;;;;;;;;5075488;28;20185;-68
2023/08/17 00:09:29;;;;;;;7.28;4.00;;;;;;;;;;5075735;28;20040;-68
2023/08/17 00:11:57;;;;;;;9.40;4.05;;;;;;;;;;5074146;28;20498;-68
2023/08/17 00:14:25;;;;;;;8.02;4.10;;;;;;;;;;5057749;28;20039;-68
2023/08/17 00:16:52;;;;;;;9.57;4.13;;;;;;;;;;5073929;28;20517;-68
2023/08/17 00:19:20;;;;;;;9.57;4.10;;;;;;;;;;5075290;28;20472;-68
2023/08/17 00:21:47;;;;;;;5.10;4.00;;;;;;;;;;5075245;28;20036;-68
2023/08/17 00:24:14;;;;;;;7.32;3.72;;;;;;;;;;5057776;28;20037;-68
2023/08/17 00:26:42;;;;;;;7.68;4.10;;;;;;;;;;5075059;28;20403;-68
2023/08/17 00:29:10;;;;;;;6.75;3.92;;;;;;;;;;5057257;28;20040;-68
2023/08/17 00:31:37;;;;;;;9.18;3.75;;;;;;;;;;5057131;28;20049;-69
2023/08/17 00:34:05;;;;;;;10.65;3.83;;;;;;;;;;5074998;28;20125;-68
2023/08/17 00:36:32;;;;;;;7.65;3.97;;;;;;;;;;5056987;28;20055;-68
2023/08/17 00:38:59;;;;;;;8.00;4.47;;;;;;;;;;5056961;28;20486;-68
2023/08/17 00:41:28;;;;;;;11.00;4.28;;;;;;;;;;5074898;28;20521;-68
2023/08/17 00:43:56;;;;;;;9.05;4.38;;;;;;;;;;5056883;28;20449;-68
2023/08/17 00:46:26;;;;;;;7.10;4.20;;;;;;;;;;5056910;28;20606;-68
2023/08/17 00:48:55;;;;;;;11.30;4.50;;;;;;;;;;5074709;28;20430;-68
2023/08/17 00:51:24;;;;;;;8.75;4.50;;;;;;;;;;5056785;28;20037;-68
2023/08/17 00:53:51;;;;;;;5.93;4.30;;;;;;;;;;5056683;28;20049;-68
2023/08/17 00:56:19;;;;;;;7.55;4.35;;;;;;;;;;5056236;28;20040;-68
2023/08/17 00:58:47;;;;;;;7.22;4.43;;;;;;;;;;5056558;28;20060;-68
2023/08/17 01:01:14;;;;;;;7.32;4.55;;;;;;;;;;5053099;28;20053;-68
2023/08/17 01:03:42;;;;;;;10.00;4.50;;;;;;;;;;5054430;28;20045;-68
2023/08/17 01:06:10;;;;;;;9.00;4.40;;;;;;;;;;5053523;28;20395;-70
2023/08/17 01:08:38;;;;;;;8.48;4.30;;;;;;;;;;5036807;28;20037;-68
2023/08/17 01:11:17;;;;;;;8.98;4.55;;;;;;;;;;5054747;28;20043;-69
2023/08/17 01:13:48;;;;;;;11.63;4.45;;;;;;;;;;5054282;28;20471;-68
2023/08/17 01:16:22;;;;;;;7.95;4.25;;;;;;;;;;5052916;28;21058;-68
2023/08/17 01:18:50;;;;;;;8.18;4.40;;;;;;;;;;5069478;28;20053;-68
2023/08/17 01:21:19;;;;;;;9.65;4.57;;;;;;;;;;5054129;28;20051;-69
2023/08/17 01:23:47;;;;;;;8.02;4.72;;;;;;;;;;5052931;28;20479;-68
2023/08/17 01:26:18;;;;;;;8.20;4.60;;;;;;;;;;5054064;28;20475;-69
2023/08/17 01:28:46;;;;;;;10.07;4.70;;;;;;;;;;5069497;28;20044;-68
2023/08/17 01:31:21;;;;;;;9.55;4.72;;;;;;;;;;5052713;28;20127;-68
2023/08/17 01:33:55;;;;;;;7.10;4.57;;;;;;;;;;5053800;28;20399;-68
2023/08/17 01:36:26;;;;;;;8.65;4.55;;;;;;;;;;5052514;28;20056;-68
2023/08/17 01:38:55;;;;;;;6.82;4.07;;;;;;;;;;5052546;28;20453;-69
2023/08/17 01:41:24;;;;;;;9.25;4.55;;;;;;;;;;5053452;28;20041;-68
2023/08/17 01:43:52;;;;;;;7.05;4.50;;;;;;;;;;5052515;28;20045;-68
2023/08/17 01:46:19;;;;;;;8.73;4.38;;;;;;;;;;5053694;28;20121;-68
2023/08/17 01:48:47;;;;;;;7.57;4.72;;;;;;;;;;5052265;28;20053;-68
2023/08/17 01:51:19;;;;;;;7.53;4.47;;;;;;;;;;5053557;28;20063;-68
2023/08/17 01:53:47;;;;;;;6.93;4.50;;;;;;;;;;5053765;28;20052;-68
2023/08/17 01:56:14;;;;;;;8.52;4.50;;;;;;;;;;5052087;28;20041;-68
2023/08/17 01:58:42;;;;;;;9.57;5.00;;;;;;;;;;5052284;28;20498;-68
2023/08/17 02:01:10;;;;;;;7.68;4.60;;;;;;;;;;5052010;28;20079;-68
2023/08/17 02:03:38;;;;;;;7.10;4.80;;;;;;;;;;5053176;28;20049;-68
2023/08/17 02:06:05;;;;;;;13.73;4.43;;;;;;;;;;5052056;28;20160;-68
2023/08/17 02:08:35;;;;;;;6.65;4.75;;;;;;;;;;5051341;28;20051;-68
2023/08/17 02:11:02;;;;;;;10.75;5.03;;;;;;;;;;5053291;28;20120;-68
2023/08/17 02:13:30;;;;;;;8.45;4.95;;;;;;;;;;5052061;28;20375;-68
2023/08/17 02:16:03;;;;;;;7.50;5.00;;;;;;;;;;5053056;28;20478;-68
2023/08/17 02:18:32;;;;;;;8.65;5.20;;;;;;;;;;5051779;28;20041;-68
2023/08/17 02:21:00;;;;;;;9.95;5.00;;;;;;;;;;5051718;28;20115;-68
2023/08/17 02:23:27;;;;;;;8.10;4.97;;;;;;;;;;5051831;28;20453;-68
2023/08/17 02:25:55;;;;;;;9.02;5.30;;;;;;;;;;5051651;28;20526;-68
2023/08/17 02:28:22;;;;;;;10.73;5.68;;;;;;;;;;5051593;28;20053;-68
2023/08/17 02:30:55;;;;;;;8.20;4.88;;;;;;;;;;5051637;28;20037;-68
2023/08/17 02:33:22;;;;;;;7.30;4.90;;;;;;;;;;5052837;28;20539;-68
2023/08/17 02:35:50;;;;;;;6.90;4.97;;;;;;;;;;5051555;28;20037;-68
2023/08/17 02:38:18;;;;;;;8.15;4.80;;;;;;;;;;5052745;28;20052;-68
2023/08/17 02:40:45;;;;;;;7.70;4.88;;;;;;;;;;5051420;28;20047;-68
2023/08/17 02:43:13;;;;;;;8.32;4.93;;;;;;;;;;5051541;28;20562;-68
2023/08/17 02:45:40;;;;;;;7.65;5.07;;;;;;;;;;5034987;28;20491;-68
2023/08/17 02:48:07;;;;;;;10.95;5.13;;;;;;;;;;5051311;28;20037;-68
2023/08/17 02:50:35;;;;;;;12.15;5.30;;;;;;;;;;5051245;28;20055;-68
2023/08/17 02:53:03;;;;;;;9.43;5.18;;;;;;;;;;5051344;28;20040;-69
2023/08/17 02:55:30;;;;;;;10.43;5.00;;;;;;;;;;5051270;28;20139;-68
2023/08/17 02:57:58;;;;;;;10.10;5.82;;;;;;;;;;5052145;28;20060;-67
2023/08/17 03:00:25;;;;;;;8.15;5.40;;;;;;;;;;5062684;28;20494;-68
2023/08/17 03:02:53;;;;;;;13.60;5.80;;;;;;;;;;5054420;28;20115;-68
2023/08/17 03:05:21;;;;;;;11.15;5.53;;;;;;;;;;5054565;28;20169;-68
2023/08/17 03:07:49;;;;;;;9.02;5.47;;;;;;;;;;5054393;28;20060;-68
2023/08/17 03:10:16;;;;;;;8.88;6.13;;;;;;;;;;5054345;28;20064;-68
2023/08/17 03:12:45;;;;;;;7.95;5.57;;;;;;;;;;5072277;28;20041;-67
2023/08/17 03:15:13;;;;;;;9.73;5.90;;;;;;;;;;5054404;28;20441;-68
2023/08/17 03:17:40;;;;;;;10.57;6.10;;;;;;;;;;5054659;28;20064;-68
2023/08/17 03:20:09;;;;;;;11.55;5.93;;;;;;;;;;5057357;28;20143;-68
2023/08/17 03:22:37;;;;;;;8.32;6.10;;;;;;;;;;5058420;28;20040;-68
2023/08/17 03:25:05;;;;;;;9.60;6.28;;;;;;;;;;5058413;28;20044;-68
2023/08/17 03:27:33;;;;;;;6.90;5.75;;;;;;;;;;5076258;28;20115;-68
2023/08/17 03:30:01;;;;;;;10.52;6.18;;;;;;;;;;5058655;28;20528;-67
2023/08/17 03:32:29;;;;;;;14.75;6.00;;;;;;;;;;5058164;28;20398;-68
2023/08/17 03:34:57;;;;;;;16.50;6.70;;;;;;;;;;5058125;28;20504;-68
2023/08/17 03:37:25;;;;;;;10.95;6.32;;;;;;;;;;5058200;28;20135;-68
2023/08/17 03:39:53;;;;;;;12.02;6.28;;;;;;;;;;5058223;28;20053;-68
2023/08/17 03:42:21;;;;;;;9.30;6.18;;;;;;;;;;5058106;28;20049;-67
2023/08/17 03:44:48;;;;;;;10.57;6.53;;;;;;;;;;5075932;28;20104;-67
2023/08/17 03:47:16;;;;;;;12.93;6.68;;;;;;;;;;5058362;28;20047;-67
2023/08/17 03:49:44;;;;;;;9.50;6.00;;;;;;;;;;5057817;28;20040;-68
2023/08/17 03:52:11;;;;;;;10.30;6.22;;;;;;;;;;5057806;28;20075;-68
2023/08/17 03:54:39;;;;;;;10.50;6.15;;;;;;;;;;5057739;28;20047;-64
2023/08/17 03:57:06;;;;;;;12.25;6.47;;;;;;;;;;5057663;28;20040;-68
2023/08/17 03:59:34;;;;;;;8.88;6.43;;;;;;;;;;5057478;28;20060;-69
2023/08/17 04:02:02;;;;;;;11.05;6.43;;;;;;;;;;5057700;28;20036;-68
2023/08/17 04:04:30;;;;;;;12.75;7.05;;;;;;;;;;5057926;28;20071;-69
2023/08/17 04:06:58;;;;;;;11.05;6.93;;;;;;;;;;5057784;28;20041;-69
2023/08/17 04:09:25;;;;;;;9.25;7.03;;;;;;;;;;5057596;28;20554;-69
2023/08/17 04:11:54;;;;;;;9.90;6.70;;;;;;;;;;5057527;28;20048;-68
2023/08/17 04:14:22;;;;;;;12.65;6.60;;;;;;;;;;5075397;28;20049;-69
2023/08/17 04:16:49;;;;;;;9.32;6.88;;;;;;;;;;5057425;28;20367;-66
2023/08/17 04:19:17;;;;;;;11.75;6.80;;;;;;;;;;5057104;28;20044;-68
2023/08/17 04:21:44;;;;;;;14.25;7.63;;;;;;;;;;5055482;28;20066;-68
2023/08/17 04:24:12;;;;;;;8.82;7.30;;;;;;;;;;5056922;28;20044;-68
2023/08/17 04:26:40;;;;;;;12.98;6.63;;;;;;;;;;5055459;28;20087;-68
2023/08/17 04:29:07;;;;;;;13.20;7.32;;;;;;;;;;5057127;28;20059;-67
2023/08/17 04:31:36;;;;;;;10.77;6.80;;;;;;;;;;5056332;28;20037;-67
2023/08/17 04:34:05;;;;;;;11.13;7.18;;;;;;;;;;5056892;28;20127;-68
2023/08/17 04:36:33;;;;;;;11.68;7.60;;;;;;;;;;5056771;28;20045;-68
2023/08/17 04:39:00;;;;;;;8.57;7.00;;;;;;;;;;5056923;28;20402;-68
2023/08/17 04:41:28;;;;;;;15.05;7.55;;;;;;;;;;5056982;28;20090;-68
2023/08/17 04:43:55;;;;;;;10.98;7.00;;;;;;;;;;5056906;28;20048;-67
2023/08/17 04:46:23;;;;;;;15.13;8.27;;;;;;;;;;5056914;28;20051;-67
2023/08/17 04:48:50;;;;;;;9.45;7.30;;;;;;;;;;5056817;28;20047;-67
2023/08/17 04:51:18;;;;;;;14.98;7.82;;;;;;;;;;5056732;28;20059;-66
2023/08/17 04:53:45;;;;;;;11.73;7.78;;;;;;;;;;5040321;28;20131;-68
2023/08/17 04:56:13;;;;;;;13.80;7.32;;;;;;;;;;5056792;28;20048;-67
2023/08/17 04:58:40;;;;;;;12.25;7.97;;;;;;;;;;5056582;28;20040;-66
2023/08/17 05:01:10;;;;;;;14.25;7.57;;;;;;;;;;5074476;28;20056;-67
2023/08/17 05:03:38;;;;;;;8.88;7.57;;;;;;;;;;5056226;28;20048;-67
2023/08/17 05:06:05;;;;;;;9.48;7.82;;;;;;;;;;5056313;28;20032;-66
2023/08/17 05:08:33;;;;;;;13.07;7.93;;;;;;;;;;5056562;28;20522;-67
2023/08/17 05:11:01;;;;;;;14.82;7.68;;;;;;;;;;5056507;28;20034;-67
2023/08/17 05:13:29;;;;;;;17.17;7.43;;;;;;;;;;5056294;28;20052;-67
2023/08/17 05:16:00;;;;;;;13.10;7.65;;;;;;;;;;5056441;28;20040;-67
2023/08/17 05:18:29;;;;;;;12.30;7.47;;;;;;;;;;5056493;28;20041;-67
2023/08/17 05:20:57;;;;;;;9.77;7.78;;;;;;;;;;5056354;28;20125;-67
2023/08/17 05:23:24;;;;;;;10.30;7.13;;;;;;;;;;5056332;28;20139;-67
2023/08/17 05:25:52;;;;;;;10.93;8.02;;;;;;;;;;5056237;28;20044;-67
2023/08/17 05:28:20;;;;;;;15.10;8.20;;;;;;;;;;5056287;28;20127;-67
2023/08/17 05:30:47;;;;;;;10.20;7.32;;;;;;;;;;5056154;28;20406;-67
2023/08/17 05:33:15;;;;;;;11.55;7.10;;;;;;;;;;5056297;28;20044;-67
2023/08/17 05:35:43;;;;;;;12.23;7.13;;;;;;;;;;5056023;28;20599;-67
2023/08/17 05:38:11;;;;;;;12.02;7.13;;;;;;;;;;5056243;28;20072;-67
2023/08/17 05:40:38;;;;;;;10.98;7.53;;;;;;;;;;5073844;28;20044;-67
2023/08/17 05:43:06;;;;;;;10.75;7.28;;;;;;;;;;5054750;28;20076;-67
2023/08/17 05:45:36;;;;;;;11.18;7.07;;;;;;;;;;5055910;28;20062;-68
2023/08/17 05:48:06;;;;;;;11.77;8.02;;;;;;;;;;5055791;28;20078;-67
2023/08/17 05:50:34;;;;;;;13.55;7.15;;;;;;;;;;5055763;28;20045;-67
2023/08/17 05:53:02;;;;;;;10.55;7.00;;;;;;;;;;5073851;28;20040;-67
2023/08/17 05:55:29;;;;;;;11.93;6.95;;;;;;;;;;5055615;28;20453;-67
2023/08/17 05:57:57;;;;;;;14.05;6.82;;;;;;;;;;5073566;28;20123;-68
2023/08/17 06:00:24;;;;;;;11.43;6.60;;;;;;;;;;5073311;28;20510;-68
2023/08/17 06:02:52;;;;;;;11.95;6.90;;;;;;;;;;5073458;28;20053;-68
2023/08/17 06:05:20;;;;;;;9.70;6.57;;;;;;;;;;5073240;28;20135;-68
2023/08/17 06:07:47;;;;;;;11.05;6.70;;;;;;;;;;5073263;28;20036;-68
2023/08/17 06:10:14;;;;;;;8.90;6.20;;;;;;;;;;5073330;28;20044;-68
2023/08/17 06:12:42;;;;;;;10.80;6.35;;;;;;;;;;5073152;28;20493;-68
2023/08/17 06:15:09;;;;;;;14.02;6.38;;;;;;;;;;5073205;28;20044;-68
2023/08/17 06:17:37;;;;;;;10.75;6.78;;;;;;;;;;5073060;28;20425;-68
2023/08/17 06:20:05;;;;;;;9.70;6.10;;;;;;;;;;5073060;28;20064;-68
2023/08/17 06:22:32;;;;;;;7.90;6.45;;;;;;;;;;5055390;28;20539;-67
2023/08/17 06:25:00;;;;;;;8.77;6.20;;;;;;;;;;5072914;28;20052;-67
2023/08/17 06:27:27;;;;;;;8.75;6.40;;;;;;;;;;5055005;28;20132;-68
2023/08/17 06:29:56;;;;;;;10.40;6.18;;;;;;;;;;5072923;28;20040;-67
2023/08/17 06:32:23;;;;;;;7.88;6.60;;;;;;;;;;5072826;28;20047;-68
2023/08/17 06:34:51;;;;;;;8.63;6.25;;;;;;;;;;5072867;28;20510;-67
2023/08/17 06:37:18;;;;;;;11.40;6.72;;;;;;;;;;5072699;28;20047;-67
2023/08/17 06:39:46;;;;;;;10.07;6.03;;;;;;;;;;5072695;28;20410;-68
2023/08/17 06:42:13;;;;;;;7.47;5.80;;;;;;;;;;5072570;28;20094;-68
2023/08/17 06:44:41;;;;;;;8.02;6.05;;;;;;;;;;5054363;28;20048;-66
2023/08/17 06:47:08;;;;;;;11.75;6.15;;;;;;;;;;5072575;28;20433;-68
2023/08/17 06:49:36;;;;;;;10.80;5.97;;;;;;;;;;5072480;28;20540;-66
2023/08/17 06:52:03;;;;;;;11.38;5.88;;;;;;;;;;5072607;28;20052;-67
2023/08/17 06:54:32;;;;;;;11.52;6.30;;;;;;;;;;5072363;28;20049;-66
2023/08/17 06:56:59;;;;;;;7.10;5.93;;;;;;;;;;5072548;28;20227;-67
2023/08/17 06:59:27;;;;;;;10.10;6.30;;;;;;;;;;5072270;28;20040;-67
2023/08/17 07:01:54;;;;;;;10.73;6.47;;;;;;;;;;5072603;28;20036;-67
2023/08/17 07:04:22;;;;;;;10.23;6.68;;;;;;;;;;5072585;28;20051;-67
2023/08/17 07:06:52;;;;;;;12.27;6.07;;;;;;;;;;5072485;28;20320;-67
2023/08/17 07:09:20;;;;;;;9.65;6.30;;;;;;;;;;5054659;28;20116;-67
2023/08/17 07:11:48;;;;;;;11.93;6.40;;;;;;;;;;5072376;28;20041;-67
2023/08/17 07:14:18;;;;;;;12.75;6.82;;;;;;;;;;5072635;28;20048;-67
2023/08/17 07:16:49;;;;;;;7.35;5.80;;;;;;;;;;5072500;28;20057;-66
2023/08/17 07:19:16;;;;;;;9.85;6.22;;;;;;;;;;5054248;28;20151;-67
2023/08/17 07:21:44;;;;;;;8.52;6.20;;;;;;;;;;5054325;28;20193;-67
2023/08/17 07:24:12;;;;;;;7.80;6.15;;;;;;;;;;5072252;28;20490;-67
2023/08/17 07:26:40;;;;;;;11.32;5.88;;;;;;;;;;5072292;28;20045;-67
2023/08/17 07:29:08;;;;;;;10.25;6.03;;;;;;;;;;5072279;28;20517;-67
2023/08/17 07:31:37;;;;;;;9.55;6.70;;;;;;;;;;5072255;28;20044;-67
2023/08/17 07:34:08;;;;;;;10.00;5.63;;;;;;;;;;5072099;28;20075;-67
2023/08/17 07:36:35;;;;;;;12.75;6.63;;;;;;;;;;5072316;28;20041;-67
2023/08/17 07:39:04;;;;;;;16.05;6.63;;;;;;;;;;5072741;28;20037;-66
2023/08/17 07:41:31;;;;;;;10.70;5.82;;;;;;;;;;5072116;28;20044;-67
2023/08/17 07:43:59;;;;;;;9.20;5.70;;;;;;;;;;5072224;28;20047;-67
2023/08/17 07:46:26;;;;;;;9.27;5.80;;;;;;;;;;5072125;28;20040;-67
2023/08/17 07:48:54;;;;;;;10.02;6.43;;;;;;;;;;5072386;28;20036;-67
2023/08/17 07:51:21;;;;;;;6.97;5.50;;;;;;;;;;5071968;28;20482;-67
2023/08/17 07:53:49;;;;;;;7.35;5.47;;;;;;;;;;5072299;28;20118;-67
2023/08/17 07:56:16;;;;;;;8.73;5.60;;;;;;;;;;5071903;28;20055;-67
2023/08/17 07:58:44;;;;;;;10.02;5.80;;;;;;;;;;5071897;28;20049;-67
2023/08/17 08:01:11;;;;;;;11.40;5.57;;;;;;;;;;5071748;28;20051;-66
2023/08/17 08:03:39;;;;;;;9.57;5.18;;;;;;;;;;5071876;28;20048;-67
2023/08/17 08:06:06;;;;;;;10.85;7.32;;;;;;;;;;5072866;28;20032;-67
2023/08/17 08:08:34;;;;;;;9.77;5.95;;;;;;;;;;5075910;28;20071;-67
2023/08/17 08:11:01;;;;;;;6.72;5.43;;;;;;;;;;5075674;28;20041;-67
2023/08/17 08:13:28;;;;;;;10.45;5.57;;;;;;;;;;5057819;28;20041;-67
2023/08/17 08:15:56;;;;;;;8.98;5.63;;;;;;;;;;5075531;28;20098;-67
2023/08/17 08:18:23;;;;;;;8.65;5.70;;;;;;;;;;5075332;28;20501;-67
2023/08/17 08:20:51;;;;;;;8.10;5.10;;;;;;;;;;5057434;28;20052;-67
2023/08/17 08:23:18;;;;;;;9.68;5.55;;;;;;;;;;5075280;28;20063;-67
2023/08/17 08:25:46;;;;;;;8.93;5.03;;;;;;;;;;5075273;28;20458;-67
2023/08/17 08:28:13;;;;;;;8.77;5.25;;;;;;;;;;5075328;28;20513;-67
2023/08/17 08:30:41;;;;;;;9.20;5.70;;;;;;;;;;5075257;28;20041;-66
2023/08/17 08:33:08;;;;;;;9.07;5.00;;;;;;;;;;5075100;28;20043;-67
2023/08/17 08:35:36;;;;;;;6.53;4.90;;;;;;;;;;5057474;28;20036;-67
2023/08/17 08:38:03;;;;;;;10.45;5.65;;;;;;;;;;5075044;28;20075;-67
2023/08/17 08:40:31;;;;;;;7.25;4.82;;;;;;;;;;5074938;28;20048;-67
2023/08/17 08:42:59;;;;;;;9.38;5.90;;;;;;;;;;5074991;28;20047;-66
2023/08/17 08:45:28;;;;;;;8.40;5.40;;;;;;;;;;5074928;28;20064;-68
2023/08/17 08:47:57;;;;;;;8.45;5.30;;;;;;;;;;5074719;28;20115;-67
2023/08/17 08:50:26;;;;;;;12.35;5.00;;;;;;;;;;5074855;28;20098;-66
2023/08/17 08:53:01;;;;;;;8.88;4.90;;;;;;;;;;5074806;28;20067;-67
2023/08/17 08:55:30;;;;;;;7.50;5.28;;;;;;;;;;5074795;28;20123;-67
2023/08/17 08:57:59;;;;;;;7.57;4.63;;;;;;;;;;5074614;28;20040;-67
2023/08/17 09:00:27;;;;;;;6.72;4.47;;;;;;;;;;5074686;28;20063;-66
2023/08/17 09:02:54;;;;;;;7.88;4.60;;;;;;;;;;5057105;28;20044;-66
2023/08/17 09:05:22;;;;;;;8.93;4.82;;;;;;;;;;5074622;28;20548;-70
2023/08/17 09:07:50;;;;;;;9.32;4.57;;;;;;;;;;5074557;28;20072;-67
2023/08/17 09:10:18;;;;;;;8.40;4.65;;;;;;;;;;5074480;28;20044;-67
2023/08/17 09:12:47;;;;;;;7.50;4.00;;;;;;;;;;5056483;28;20147;-66
2023/08/17 09:15:16;;;;;;;7.90;4.20;;;;;;;;;;5074550;28;20044;-66
2023/08/17 09:17:44;;;;;;;7.20;4.50;;;;;;;;;;5073980;28;20036;-66
2023/08/17 09:20:12;;;;;;;5.15;4.10;;;;;;;;;;5074338;28;20044;-66
2023/08/17 09:22:39;;;;;;;8.13;4.38;;;;;;;;;;5074171;28;20398;-66
2023/08/17 09:25:07;;;;;;;8.25;4.70;;;;;;;;;;5074149;28;20098;-67
2023/08/17 09:27:36;;;;;;;6.65;3.60;;;;;;;;;;5074082;28;20037;-67
2023/08/17 09:30:07;;;;;;;6.97;4.25;;;;;;;;;;5074132;28;20041;-66
2023/08/17 09:32:35;;;;;;;7.15;4.18;;;;;;;;;;5073988;28;20032;-66
2023/08/17 09:35:06;;;;;;;8.65;5.22;;;;;;;;;;5074159;28;20127;-68
2023/08/17 09:37:34;;;;;;;7.90;5.00;;;;;;;;;;5073910;28;20051;-68
2023/08/17 09:40:02;;;;;;;7.97;4.05;;;;;;;;;;5073892;28;20036;-66
2023/08/17 09:42:31;;;;;;;4.78;4.18;;;;;;;;;;5073768;28;20037;-66
2023/08/17 09:45:01;;;;;;;6.65;4.35;;;;;;;;;;5073875;28;20458;-66
2023/08/17 09:47:28;;;;;;;7.38;3.70;;;;;;;;;;5073387;28;20139;-66
2023/08/17 09:49:56;;;;;;;7.47;4.30;;;;;;;;;;5055677;28;20044;-66
2023/08/17 09:52:25;;;;;;;11.55;4.00;;;;;;;;;;5073253;28;20051;-66
2023/08/17 09:54:54;;;;;;;6.43;3.60;;;;;;;;;;5055508;28;20040;-66
2023/08/17 09:57:22;;;;;;;7.95;5.60;;;;;;;;;;5072918;28;20098;-67
2023/08/17 09:59:51;;;;;;;5.82;3.78;;;;;;;;;;5055305;28;20052;-67
2023/08/17 10:02:23;;;;;;;8.95;4.10;;;;;;;;;;5073436;28;20041;-67
2023/08/17 10:04:52;;;;;;;8.00;5.18;;;;;;;;;;5073424;28;20040;-66
2023/08/17 10:07:21;;;;;;;7.85;4.00;;;;;;;;;;5073240;28;20115;-65
2023/08/17 10:10:02;;;;;;;6.18;3.65;;;;;;;;;;5073231;28;20068;-66
2023/08/17 10:12:33;;;;;;;7.00;4.72;;;;;;;;;;5073446;28;20048;-65
2023/08/17 10:15:03;;;;;;;5.45;3.67;;;;;;;;;;5055171;28;20051;-67
2023/08/17 10:17:39;;;;;;;7.30;3.67;;;;;;;;;;5073077;28;20064;-67
2023/08/17 10:20:07;;;;;;;5.65;3.50;;;;;;;;;;5072892;28;20055;-68
2023/08/17 10:22:42;;;;;;;3.92;3.25;;;;;;;;;;5073136;28;20032;-67
2023/08/17 10:25:12;;;;;;;5.70;3.53;;;;;;;;;;5073053;28;20040;-66
2023/08/17 10:27:39;;;;;;;8.23;3.75;;;;;;;;;;5072946;28;20080;-66
2023/08/17 10:30:08;;;;;;;4.40;3.22;;;;;;;;;;5072423;28;20037;-66
2023/08/17 10:32:36;;;;;;;4.70;3.45;;;;;;;;;;5072863;28;20040;-67
2023/08/17 10:35:05;;;;;;;7.70;5.28;;;;;;;;;;5073094;28;20048;-67
2023/08/17 10:37:32;;;;;;;5.57;3.78;;;;;;;;;;5073055;28;20048;-65
2023/08/17 10:40:00;;;;;;;6.13;3.35;;;;;;;;;;5073055;28;20041;-65
2023/08/17 10:42:35;;;;;;;4.05;3.40;;;;;;;;;;5072998;28;20062;-66
2023/08/17 10:45:21;;;;;;;4.97;3.17;;;;;;;;;;5054655;28;20063;-67
2023/08/17 10:47:48;;;;;;;5.05;3.53;;;;;;;;;;5072751;28;20054;-68
2023/08/17 10:50:22;;;;;;;7.15;3.22;;;;;;;;;;5072646;28;20040;-67
2023/08/17 10:52:50;;;;;;;7.88;3.40;;;;;;;;;;5072596;28;20049;-67
2023/08/17 10:55:19;;;;;;;5.38;3.25;;;;;;;;;;5072504;28;20040;-66
2023/08/17 10:57:47;;;;;;;4.88;3.28;;;;;;;;;;5072751;28;20125;-66
2023/08/17 11:00:16;;;;;;;5.45;3.63;;;;;;;;;;5054730;28;20058;-66
2023/08/17 11:03:06;;;;;;;6.65;2.97;;;;;;;;;;5072594;28;20478;-66
2023/08/17 11:05:35;;;;;;;5.72;3.03;;;;;;;;;;5072400;28;20131;-65
2023/08/17 11:08:03;;;;;;;5.93;3.30;;;;;;;;;;5072349;28;20556;-65
2023/08/17 11:10:31;;;;;;;6.90;3.30;;;;;;;;;;5072469;28;20036;-66
2023/08/17 11:13:02;;;;;;;4.22;3.63;;;;;;;;;;5072693;28;20494;-66
2023/08/17 11:15:42;;;;;;;3.95;3.00;;;;;;;;;;5072366;28;20032;-67
2023/08/17 11:18:10;;;;;;;5.72;3.13;;;;;;;;;;5072435;28;20486;-67
2023/08/17 11:20:39;;;;;;;5.97;3.45;;;;;;;;;;5072329;28;20044;-68
2023/08/17 11:23:07;;;;;;;4.63;3.13;;;;;;;;;;5072292;28;20064;-68
2023/08/17 11:25:35;;;;;;;7.18;3.28;;;;;;;;;;5072252;28;20041;-67
2023/08/17 11:28:04;;;;;;;5.38;3.60;;;;;;;;;;5072228;28;20486;-67
2023/08/17 11:30:33;;;;;;;6.18;3.10;;;;;;;;;;5072269;28;20044;-66
2023/08/17 11:33:01;;;;;;;6.10;3.15;;;;;;;;;;5072317;28;20554;-67
2023/08/17 11:35:29;;;;;;;6.05;3.03;;;;;;;;;;5072252;28;20505;-66
2023/08/17 11:37:56;;;;;;;4.30;2.80;;;;;;;;;;5072272;28;20048;-66
2023/08/17 11:40:25;;;;;;;4.63;3.20;;;;;;;;;;5073660;28;20509;-67
2023/08/17 11:42:53;;;;;;;5.70;3.10;;;;;;;;;;5076127;28;20490;-65
2023/08/17 11:45:20;;;;;;;3.95;2.70;;;;;;;;;;5076110;28;20045;-66
2023/08/17 11:47:54;;;;;;;6.05;2.90;;;;;;;;;;5058421;28;20045;-65
2023/08/17 11:50:22;;;;;;;8.25;3.20;;;;;;;;;;5076272;28;20075;-65
2023/08/17 11:52:49;;;;;;;4.65;2.72;;;;;;;;;;5075936;28;20056;-66
2023/08/17 11:55:19;;;;;;;6.63;2.95;;;;;;;;;;5057909;28;20058;-66
2023/08/17 11:57:47;;;;;;;6.85;2.85;;;;;;;;;;5075732;28;20113;-66
2023/08/17 12:00:19;;;;;;;5.32;2.80;;;;;;;;;;5075642;28;20048;-66
2023/08/17 12:02:51;;;;;;;5.03;2.63;;;;;;;;;;5075797;28;20041;-66
2023/08/17 12:05:23;;;;;;;6.30;2.70;;;;;;;;;;5075615;28;20112;-66
2023/08/17 12:07:53;;;;;;;2.80;2.60;;;;;;;;;;5075565;28;20070;-66
2023/08/17 12:10:22;;;;;;;5.03;2.50;;;;;;;;;;5075555;28;20041;-68
2023/08/17 12:12:49;;;;;;;2.67;2.22;;;;;;;;;;5075340;28;20037;-67
2023/08/17 12:15:17;;;;;;;3.08;2.60;;;;;;;;;;5057605;28;20045;-66
2023/08/17 12:17:48;;;;;;;4.15;2.58;;;;;;;;;;5075367;28;20120;-66
2023/08/17 12:20:20;;;;;;;4.72;2.38;;;;;;;;;;5075292;28;20044;-66
2023/08/17 12:22:48;;;;;;;4.00;2.40;;;;;;;;;;5075251;28;20500;-66
2023/08/17 12:25:16;;;;;;;2.80;2.00;;;;;;;;;;5075120;28;20044;-66
2023/08/17 12:27:43;;;;;;;4.85;2.63;;;;;;;;;;5074914;28;20086;-66
2023/08/17 12:30:27;;;;;;;3.15;2.25;;;;;;;;;;5076197;28;20032;-66
2023/08/17 12:32:55;;;;;;;;;;;;;;;;;;5076495;28;20048;-67
2023/08/17 12:35:25;;;;;;;3.95;2.58;;;;;;;;;;5075052;28;19978;-67
2023/08/17 12:37:53;;;;;;;5.47;2.58;;;;;;;;;;5075010;28;20074;-67
2023/08/17 12:40:21;;;;;;;6.32;2.72;;;;;;;;;;5074921;28;20045;-66
2023/08/17 12:42:48;;;;;;;4.50;2.30;;;;;;;;;;5074680;28;20068;-67
2023/08/17 12:45:16;;;;;;;4.40;2.38;;;;;;;;;;5074812;28;20040;-68
2023/08/17 12:47:44;;;;;;;5.32;2.40;;;;;;;;;;5074809;28;20449;-67
2023/08/17 12:50:11;;;;;;;4.75;2.40;;;;;;;;;;5074874;28;20043;-66
2023/08/17 12:52:39;;;;;;;3.95;2.25;;;;;;;;;;5074236;28;20040;-67
2023/08/17 12:55:06;;;;;;;3.38;2.30;;;;;;;;;;5074753;28;20111;-66
2023/08/17 12:57:34;;;;;;;3.17;2.30;;;;;;;;;;5056986;28;20051;-67
2023/08/17 13:00:02;;;;;;;8.32;5.82;;;;;;;;;;5074376;28;20048;-67
2023/08/17 13:02:29;;;;;;;7.15;2.38;;;;;;;;;;5074578;28;20425;-67
2023/08/17 13:04:57;;;;;;;3.03;2.08;;;;;;;;;;5074557;28;20044;-66
2023/08/17 13:07:24;;;;;;;4.70;2.20;;;;;;;;;;5074444;28;20054;-67
2023/08/17 13:09:52;;;;;;;3.90;2.25;;;;;;;;;;5074438;28;20040;-66
2023/08/17 13:12:19;;;;;;;5.75;3.78;;;;;;;;;;5074256;28;20028;-66
2023/08/17 13:14:47;;;;;;;4.75;2.53;;;;;;;;;;5074334;28;20047;-66
2023/08/17 13:17:16;;;;;;;3.55;2.30;;;;;;;;;;5074256;28;20492;-66
2023/08/17 13:19:44;;;;;;;5.35;2.17;;;;;;;;;;5056495;28;20044;-67
2023/08/17 13:22:11;;;;;;;4.60;2.20;;;;;;;;;;5074390;28;20036;-67
2023/08/17 13:24:40;;;;;;;4.32;2.78;;;;;;;;;;5074139;28;20063;-66
2023/08/17 13:27:07;;;;;;;4.68;2.25;;;;;;;;;;5074407;28;20055;-67
2023/08/17 13:29:35;;;;;;;5.68;2.33;;;;;;;;;;5074009;28;20041;-67
2023/08/17 13:32:03;;;;;;;4.65;2.13;;;;;;;;;;5074063;28;20051;-67
2023/08/17 13:34:30;;;;;;;3.85;2.20;;;;;;;;;;5074266;28;20119;-67
2023/08/17 13:36:58;;;;;;;2.97;2.05;;;;;;;;;;5056172;28;20048;-66
2023/08/17 13:39:26;;;;;;;5.53;2.28;;;;;;;;;;5073942;28;20456;-69
2023/08/17 13:41:53;;;;;;;3.38;2.30;;;;;;;;;;5072284;28;20043;-67
2023/08/17 13:44:21;;;;;;;4.43;2.40;;;;;;;;;;5073750;28;20036;-66
2023/08/17 13:46:48;;;;;;;4.57;2.13;;;;;;;;;;5073596;28;20512;-66
2023/08/17 13:49:16;;;;;;;2.20;1.85;;;;;;;;;;5072486;28;20049;-67
2023/08/17 13:51:43;;;;;;;4.53;2.83;;;;;;;;;;5073658;28;20033;-66
2023/08/17 13:54:11;;;;;;;11.52;5.97;;;;;;;;;;5073453;28;20044;-66
2023/08/17 13:56:38;;;;;;;6.65;3.42;;;;;;;;;;5073471;28;20548;-68
2023/08/17 13:59:06;;;;;;;3.58;2.40;;;;;;;;;;5055591;28;20045;-68
2023/08/17 14:01:36;;;;;;;3.72;2.38;;;;;;;;;;5055440;28;20498;-67
2023/08/17 14:04:06;;;;;;;4.93;2.33;;;;;;;;;;5054202;28;20102;-67
2023/08/17 14:06:33;;;;;;;4.88;2.58;;;;;;;;;;5072426;28;20143;-67
2023/08/17 14:09:02;;;;;;;5.10;2.38;;;;;;;;;;5070071;28;20045;-65
2023/08/17 14:11:30;;;;;;;4.18;2.10;;;;;;;;;;5066163;28;20055;-66
2023/08/17 14:13:57;;;;;;;4.07;2.30;;;;;;;;;;5058778;28;20102;-67
2023/08/17 14:16:25;;;;;;;2.88;2.40;;;;;;;;;;5044787;28;20064;-65
2023/08/17 14:18:52;;;;;;;4.38;2.17;;;;;;;;;;5053383;28;20120;-69
2023/08/17 14:21:20;;;;;;;3.30;2.30;;;;;;;;;;5066985;28;20041;-66
2023/08/17 14:23:47;;;;;;;4.88;2.10;;;;;;;;;;5067333;28;20041;-67
2023/08/17 14:26:15;;;;;;;6.60;2.75;;;;;;;;;;5044844;28;20045;-67
2023/08/17 14:28:42;;;;;;;3.50;2.35;;;;;;;;;;5040728;28;20040;-67
2023/08/17 14:31:15;;;;;;;4.28;2.53;;;;;;;;;;5066627;28;20688;-68
2023/08/17 14:33:46;;;;;;;4.05;2.53;;;;;;;;;;5066359;28;20076;-66
2023/08/17 14:36:14;;;;;;;4.88;2.95;;;;;;;;;;5067210;28;20055;-66
2023/08/17 14:38:46;;;;;;;7.15;4.70;;;;;;;;;;5067445;28;20072;-66
2023/08/17 14:41:13;;;;;;;3.90;2.25;;;;;;;;;;5067265;28;20041;-68
2023/08/17 14:43:41;;;;;;;4.65;2.75;;;;;;;;;;5059404;28;20041;-68
2023/08/17 14:46:08;;;;;;;4.72;2.97;;;;;;;;;;5061379;28;20041;-68
2023/08/17 14:48:41;;;;;;;6.43;2.63;;;;;;;;;;5067460;28;20470;-67